createdAt,value
2018-08-13T00:00:53.415Z,31.80
2018-08-13T00:03:21.770Z,32.00
2018-08-13T00:05:50.136Z,32.20
2018-08-13T00:08:18.683Z,32.10
2018-08-13T00:10:47.394Z,32.30
2018-08-13T00:13:16.318Z,32.40
2018-08-13T00:15:45.187Z,32.20
2018-08-13T00:18:13.793Z,31.90
2018-08-13T00:20:42.212Z,32.20
2018-08-13T00:23:10.603Z,32.30
2018-08-13T00:25:39.138Z,32.30
2018-08-13T00:28:08.654Z,32.10
2018-08-13T00:30:37.041Z,31.90
2018-08-13T00:33:06.966Z,31.80
2018-08-13T00:35:35.337Z,32.00
2018-08-13T00:38:03.763Z,32.00
2018-08-13T00:40:32.219Z,32.30
2018-08-13T00:43:00.629Z,32.60
2018-08-13T00:45:29.026Z,32.80
2018-08-13T00:47:57.574Z,32.70
2018-08-13T00:50:25.974Z,32.80
2018-08-13T00:52:54.387Z,32.90
2018-08-13T00:55:23.040Z,33.00
2018-08-13T00:57:51.394Z,32.80
2018-08-13T01:00:20.959Z,32.90
2018-08-13T01:02:49.891Z,32.90
2018-08-13T01:05:19.235Z,32.90
2018-08-13T01:07:47.574Z,32.80
2018-08-13T01:10:18.598Z,32.80
2018-08-13T01:12:47.016Z,32.80
2018-08-13T01:15:16.778Z,33.00
2018-08-13T01:17:46.912Z,33.10
2018-08-13T01:20:18.271Z,33.10
2018-08-13T01:22:46.658Z,33.20
2018-08-13T01:25:16.463Z,33.30
2018-08-13T01:27:45.064Z,34.10
2018-08-13T01:30:14.894Z,33.50
2018-08-13T01:32:43.260Z,33.60
2018-08-13T01:35:11.631Z,33.80
2018-08-13T01:37:40.143Z,34.10
2018-08-13T01:40:09.892Z,34.10
2018-08-13T01:42:38.579Z,34.40
2018-08-13T01:45:08.703Z,34.60
2018-08-13T01:47:37.368Z,34.50
2018-08-13T01:50:07.531Z,34.70
2018-08-13T01:52:35.806Z,34.80
2018-08-13T01:55:04.965Z,34.70
2018-08-13T01:57:33.394Z,34.70
2018-08-13T02:00:01.805Z,34.80
2018-08-13T02:02:30.152Z,35.00
2018-08-13T02:04:58.473Z,35.10
2018-08-13T02:07:26.827Z,34.80
2018-08-13T02:09:55.190Z,34.80
2018-08-13T02:12:23.555Z,34.90
2018-08-13T02:14:51.878Z,34.70
2018-08-13T02:17:20.224Z,34.50
2018-08-13T02:19:48.578Z,34.40
2018-08-13T02:22:16.996Z,34.10
2018-08-13T02:24:45.344Z,34.50
2018-08-13T02:27:13.701Z,34.60
2018-08-13T02:29:42.010Z,34.90
2018-08-13T02:32:10.572Z,34.90
2018-08-13T02:34:38.955Z,35.00
2018-08-13T02:37:07.486Z,34.90
2018-08-13T02:39:35.879Z,35.00
2018-08-13T02:42:04.240Z,35.10
2018-08-13T02:44:32.604Z,35.10
2018-08-13T02:47:00.945Z,35.10
2018-08-13T02:49:29.402Z,35.20
2018-08-13T02:51:57.696Z,35.20
2018-08-13T02:54:26.033Z,35.20
2018-08-13T02:56:54.403Z,35.30
2018-08-13T02:59:22.788Z,35.40
2018-08-13T03:01:51.115Z,35.40
2018-08-13T03:04:19.487Z,35.40
2018-08-13T03:06:47.890Z,35.50
2018-08-13T03:09:16.330Z,35.50
2018-08-13T03:11:44.784Z,35.70
2018-08-13T03:14:13.120Z,35.70
2018-08-13T03:16:41.444Z,35.90
2018-08-13T03:19:09.834Z,36.00
2018-08-13T03:21:38.348Z,36.10
2018-08-13T03:24:06.988Z,36.30
2018-08-13T03:26:35.369Z,36.30
2018-08-13T03:29:03.841Z,36.30
2018-08-13T03:31:32.168Z,36.30
2018-08-13T03:34:00.508Z,36.40
2018-08-13T03:36:28.840Z,36.40
2018-08-13T03:38:57.303Z,36.50
2018-08-13T03:41:25.657Z,36.40
2018-08-13T03:43:53.992Z,36.50
2018-08-13T03:46:22.384Z,36.50
2018-08-13T03:48:50.849Z,36.60
2018-08-13T03:51:19.348Z,36.60
2018-08-13T03:53:47.691Z,36.70
2018-08-13T03:56:16.072Z,37.00
2018-08-13T03:58:44.364Z,36.90
2018-08-13T04:01:12.693Z,36.90
2018-08-13T04:03:41.006Z,36.90
2018-08-13T04:06:09.342Z,37.00
2018-08-13T04:08:37.657Z,37.00
2018-08-13T04:11:06.320Z,37.10
2018-08-13T04:13:34.692Z,37.10
2018-08-13T04:16:03.189Z,37.70
2018-08-13T04:18:31.544Z,37.50
2018-08-13T04:20:59.888Z,37.40
2018-08-13T04:23:28.180Z,37.60
2018-08-13T04:25:56.550Z,37.60
2018-08-13T04:28:24.899Z,37.80
2018-08-13T04:30:53.240Z,37.70
2018-08-13T04:33:21.864Z,37.40
2018-08-13T04:35:50.296Z,37.40
2018-08-13T04:38:18.778Z,37.40
2018-08-13T04:40:47.168Z,37.60
2018-08-13T04:43:15.721Z,37.50
2018-08-13T04:45:44.048Z,37.50
2018-08-13T04:48:12.368Z,37.70
2018-08-13T04:50:40.676Z,37.90
2018-08-13T04:53:08.987Z,37.90
2018-08-13T04:55:37.340Z,37.80
2018-08-13T04:58:05.737Z,37.90
2018-08-13T05:00:34.092Z,37.90
2018-08-13T05:03:02.415Z,37.80
2018-08-13T05:05:30.743Z,37.80
2018-08-13T05:07:59.045Z,37.50
2018-08-13T05:10:27.344Z,37.20
2018-08-13T05:12:55.767Z,37.20
2018-08-13T05:15:24.120Z,37.30
2018-08-13T05:17:52.476Z,37.30
2018-08-13T05:20:21.122Z,37.50
2018-08-13T05:22:49.571Z,37.30
2018-08-13T05:25:17.932Z,37.40
2018-08-13T05:27:46.280Z,37.50
2018-08-13T05:30:14.663Z,37.30
2018-08-13T05:32:42.997Z,37.30
2018-08-13T05:35:18.106Z,37.30
2018-08-13T05:37:46.552Z,37.50
2018-08-13T05:40:14.983Z,37.20
2018-08-13T05:42:43.293Z,37.20
2018-08-13T05:45:11.647Z,37.30
2018-08-13T05:47:40.278Z,37.00
2018-08-13T05:50:10.407Z,37.20
2018-08-13T05:52:38.804Z,37.00
2018-08-13T05:55:07.855Z,36.90
2018-08-13T05:57:36.293Z,36.80
2018-08-13T06:00:07.896Z,36.70
2018-08-13T06:02:36.703Z,36.60
2018-08-13T06:05:05.082Z,36.70
2018-08-13T06:07:33.453Z,37.00
2018-08-13T06:10:01.849Z,37.10
2018-08-13T06:12:30.228Z,37.20
2018-08-13T06:14:58.573Z,37.10
2018-08-13T06:17:26.929Z,36.80
2018-08-13T06:19:55.444Z,36.80
2018-08-13T06:22:23.944Z,36.80
2018-08-13T06:24:52.408Z,36.70
2018-08-13T06:27:20.880Z,36.50
2018-08-13T06:29:49.176Z,36.20
2018-08-13T06:32:17.528Z,36.00
2018-08-13T06:34:45.870Z,35.50
2018-08-13T06:37:14.405Z,35.20
2018-08-13T06:39:42.768Z,35.00
2018-08-13T06:42:11.093Z,34.80
2018-08-13T06:44:39.409Z,34.70
2018-08-13T06:47:07.887Z,34.70
2018-08-13T06:49:36.237Z,34.60
2018-08-13T06:52:04.831Z,34.70
2018-08-13T06:54:33.197Z,35.50
2018-08-13T06:57:01.767Z,35.20
2018-08-13T06:59:30.307Z,35.70
2018-08-13T07:01:58.724Z,36.00
2018-08-13T07:04:27.259Z,36.20
2018-08-13T07:06:55.627Z,36.00
2018-08-13T07:09:23.968Z,35.80
2018-08-13T07:11:52.317Z,36.60
2018-08-13T07:14:20.599Z,38.10
2018-08-13T07:16:49.016Z,38.00
2018-08-13T07:19:17.339Z,36.70
2018-08-13T07:21:45.647Z,37.30
2018-08-13T07:24:14.041Z,38.10
2018-08-13T07:26:42.532Z,38.30
2018-08-13T07:29:10.843Z,37.80
2018-08-13T07:31:39.324Z,38.60
2018-08-13T07:34:07.792Z,37.40
2018-08-13T07:36:36.247Z,38.80
2018-08-13T07:39:07.874Z,37.90
2018-08-13T07:41:36.178Z,38.20
2018-08-13T07:44:05.100Z,38.90
2018-08-13T07:46:33.566Z,38.80
2018-08-13T07:49:02.036Z,37.60
2018-08-13T07:51:30.689Z,38.50
2018-08-13T07:53:59.666Z,38.30
2018-08-13T07:56:28.051Z,38.70
2018-08-13T07:58:56.406Z,39.10
2018-08-13T08:01:24.732Z,39.20
2018-08-13T08:03:53.087Z,39.30
2018-08-13T08:06:21.778Z,39.90
2018-08-13T08:08:50.352Z,38.70
2018-08-13T08:11:18.861Z,41.10
2018-08-13T08:13:47.429Z,39.60
2018-08-13T08:16:15.886Z,38.80
2018-08-13T08:18:44.495Z,40.50
2018-08-13T08:21:13.099Z,40.60
2018-08-13T08:23:41.702Z,40.20
2018-08-13T08:26:10.123Z,40.80
2018-08-13T08:28:38.565Z,39.60
2018-08-13T08:31:06.925Z,40.60
2018-08-13T08:33:35.308Z,39.60
2018-08-13T08:36:03.826Z,39.80
2018-08-13T08:38:32.192Z,40.00
2018-08-13T08:41:00.639Z,40.00
2018-08-13T08:43:28.995Z,39.90
2018-08-13T08:45:57.449Z,40.10
2018-08-13T08:48:26.141Z,39.90
2018-08-13T08:50:54.506Z,39.80
2018-08-13T08:53:22.876Z,39.70
2018-08-13T08:55:51.307Z,40.60
2018-08-13T08:58:19.759Z,40.20
2018-08-13T09:00:48.170Z,40.80
2018-08-13T09:03:16.773Z,40.70
2018-08-13T09:05:45.262Z,40.40
2018-08-13T09:08:13.896Z,41.00
2018-08-13T09:10:42.343Z,40.40
2018-08-13T09:13:10.695Z,41.20
2018-08-13T09:15:39.101Z,41.00
2018-08-13T09:18:18.663Z,42.50
2018-08-13T09:20:58.227Z,41.30
2018-08-13T09:23:38.057Z,41.80
2018-08-13T09:26:17.786Z,42.30
2018-08-13T09:28:57.591Z,41.80
2018-08-13T09:31:37.315Z,41.20
2018-08-13T09:34:17.116Z,41.30
2018-08-13T09:36:45.562Z,41.70
2018-08-13T09:39:13.929Z,42.60
2018-08-13T09:41:42.556Z,42.40
2018-08-13T09:44:10.906Z,42.10
2018-08-13T09:46:40.136Z,42.70
2018-08-13T09:49:08.968Z,42.90
2018-08-13T09:51:37.273Z,43.30
2018-08-13T09:54:05.665Z,43.90
2018-08-13T09:56:34.006Z,43.50
2018-08-13T09:59:04.975Z,42.80
2018-08-13T10:01:33.682Z,43.30
2018-08-13T10:04:02.014Z,43.70
2018-08-13T10:06:30.605Z,43.10
2018-08-13T10:08:59.255Z,43.70
2018-08-13T10:11:27.750Z,42.30
2018-08-13T10:13:56.440Z,42.70
2018-08-13T10:16:25.036Z,42.90
2018-08-13T10:18:53.754Z,42.80
2018-08-13T10:21:22.300Z,42.70
2018-08-13T10:23:50.732Z,42.80
2018-08-13T10:26:19.372Z,43.00
2018-08-13T10:28:47.899Z,43.50
2018-08-13T10:31:17.138Z,42.90
2018-08-13T10:33:46.459Z,43.30
2018-08-13T10:36:14.896Z,43.50
2018-08-13T10:38:43.786Z,43.10
2018-08-13T10:41:12.143Z,43.50
2018-08-13T10:43:40.636Z,44.00
2018-08-13T10:46:09.215Z,43.70
2018-08-13T10:48:38.246Z,44.20
2018-08-13T10:51:06.845Z,43.50
2018-08-13T10:53:35.337Z,44.30
2018-08-13T10:56:03.812Z,43.80
2018-08-13T10:58:32.209Z,44.60
2018-08-13T11:01:00.620Z,44.20
2018-08-13T11:03:28.896Z,44.60
2018-08-13T11:05:57.184Z,44.00
2018-08-13T11:08:25.514Z,44.80
2018-08-13T11:10:54.021Z,44.90
2018-08-13T11:13:22.374Z,45.10
2018-08-13T11:15:50.725Z,44.60
2018-08-13T11:18:19.057Z,44.70
2018-08-13T11:20:47.380Z,44.60
2018-08-13T11:23:15.737Z,44.40
2018-08-13T11:25:44.119Z,44.00
2018-08-13T11:28:12.481Z,44.20
2018-08-13T11:30:40.820Z,43.80
2018-08-13T11:33:09.128Z,44.10
2018-08-13T11:35:37.668Z,44.00
2018-08-13T11:38:06.094Z,43.90
2018-08-13T11:40:34.557Z,43.60
2018-08-13T11:43:02.892Z,44.50
2018-08-13T11:45:31.310Z,44.40
2018-08-13T11:47:59.636Z,43.70
2018-08-13T11:50:27.955Z,43.60
2018-08-13T11:52:56.293Z,43.60
2018-08-13T11:55:24.712Z,43.70
2018-08-13T11:57:53.157Z,43.90
2018-08-13T12:00:21.556Z,43.60
2018-08-13T12:02:50.033Z,43.90
2018-08-13T12:05:18.564Z,43.20
2018-08-13T12:07:46.944Z,43.60
2018-08-13T12:10:15.763Z,43.10
2018-08-13T12:12:45.297Z,42.80
2018-08-13T12:15:14.498Z,42.80
2018-08-13T12:17:43.263Z,43.30
2018-08-13T12:20:13.878Z,43.30
2018-08-13T12:22:42.725Z,43.50
2018-08-13T12:25:29.644Z,44.00
2018-08-13T12:27:58.072Z,44.30
2018-08-13T12:30:26.839Z,44.70
2018-08-13T12:32:55.659Z,44.70
2018-08-13T12:35:24.023Z,44.40
2018-08-13T12:37:52.560Z,44.20
2018-08-13T12:40:21.410Z,44.60
2018-08-13T12:42:50.015Z,45.00
2018-08-13T12:45:19.050Z,44.80
2018-08-13T12:47:47.581Z,45.20
2018-08-13T12:50:17.696Z,44.50
2018-08-13T12:52:47.503Z,45.00
2018-08-13T12:55:16.187Z,45.80
2018-08-13T12:57:44.755Z,44.30
2018-08-13T13:00:14.736Z,44.60
2018-08-13T13:02:43.595Z,44.50
2018-08-13T13:05:13.541Z,45.20
2018-08-13T13:07:42.260Z,44.50
2018-08-13T13:10:12.919Z,44.50
2018-08-13T13:12:41.794Z,44.40
2018-08-13T13:15:14.788Z,44.10
2018-08-13T13:17:43.263Z,44.30
2018-08-13T13:20:14.013Z,44.30
2018-08-13T13:22:42.811Z,43.90
2018-08-13T13:25:11.203Z,44.40
2018-08-13T13:27:39.711Z,44.60
2018-08-13T13:30:10.772Z,45.20
2018-08-13T13:32:39.227Z,44.30
2018-08-13T13:35:09.198Z,43.70
2018-08-13T13:37:37.876Z,43.30
2018-08-13T13:40:10.702Z,41.70
2018-08-13T13:42:39.492Z,39.80
2018-08-13T13:45:08.782Z,38.00
2018-08-13T13:47:37.302Z,36.70
2018-08-13T13:50:06.376Z,35.00
2018-08-13T13:52:34.784Z,33.20
2018-08-13T13:55:03.389Z,31.90
2018-08-13T13:57:31.973Z,30.60
2018-08-13T14:00:00.352Z,29.70
2018-08-13T14:02:28.679Z,28.80
2018-08-13T14:04:57.013Z,28.30
2018-08-13T14:07:25.323Z,27.70
2018-08-13T14:09:53.656Z,28.10
2018-08-13T14:12:21.987Z,28.40
2018-08-13T14:14:50.413Z,28.50
2018-08-13T14:17:18.821Z,28.70
2018-08-13T14:19:47.465Z,29.00
2018-08-13T14:22:15.887Z,29.80
2018-08-13T14:24:44.432Z,29.80
2018-08-13T14:27:12.809Z,30.30
2018-08-13T14:29:41.117Z,30.80
2018-08-13T14:32:09.559Z,30.90
2018-08-13T14:34:37.976Z,30.70
2018-08-13T14:37:06.318Z,29.90
2018-08-13T14:39:34.620Z,30.00
2018-08-13T14:42:03.280Z,29.30
2018-08-13T14:44:31.680Z,28.70
2018-08-13T14:47:00.433Z,29.00
2018-08-13T14:49:29.031Z,29.30
2018-08-13T14:51:58.143Z,29.70
2018-08-13T14:54:26.481Z,30.00
2018-08-13T14:56:54.884Z,30.60
2018-08-13T14:59:23.566Z,31.30
2018-08-13T15:01:52.011Z,32.10
2018-08-13T15:04:20.635Z,32.70
2018-08-13T15:06:49.439Z,33.10
2018-08-13T15:09:18.073Z,33.80
2018-08-13T15:11:46.519Z,34.30
2018-08-13T15:14:14.891Z,34.60
2018-08-13T15:16:43.248Z,35.00
2018-08-13T15:19:12.165Z,35.50
2018-08-13T15:21:40.613Z,35.70
2018-08-13T15:24:08.977Z,35.80
2018-08-13T15:26:37.595Z,36.00
2018-08-13T15:29:06.016Z,36.10
2018-08-13T15:31:34.353Z,36.00
2018-08-13T15:34:02.671Z,36.10
2018-08-13T15:36:31.172Z,36.10
2018-08-13T15:38:59.568Z,36.00
2018-08-13T15:41:27.911Z,36.20
2018-08-13T15:43:56.276Z,36.20
2018-08-13T15:46:24.607Z,36.20
2018-08-13T15:48:53.007Z,36.20
2018-08-13T15:51:21.599Z,36.20
2018-08-13T15:53:49.932Z,36.20
2018-08-13T15:56:18.700Z,36.30
2018-08-13T15:58:47.083Z,36.30
2018-08-13T16:01:15.407Z,36.30
2018-08-13T16:03:43.806Z,36.40
2018-08-13T16:06:12.384Z,36.40
2018-08-13T16:08:40.759Z,36.50
2018-08-13T16:11:09.080Z,36.60
2018-08-13T16:13:37.553Z,36.60
2018-08-13T16:16:05.900Z,36.70
2018-08-13T16:18:34.267Z,37.00
2018-08-13T16:21:02.611Z,37.60
2018-08-13T16:23:30.931Z,37.20
2018-08-13T16:25:59.255Z,37.30
2018-08-13T16:28:27.657Z,37.40
2018-08-13T16:30:56.394Z,37.60
2018-08-13T16:33:24.889Z,37.80
2018-08-13T16:35:53.388Z,37.70
2018-08-13T16:38:22.059Z,37.70
2018-08-13T16:40:50.761Z,37.80
2018-08-13T16:43:19.242Z,38.10
2018-08-13T16:45:47.698Z,39.10
2018-08-13T16:48:16.208Z,39.30
2018-08-13T16:50:44.529Z,39.50
2018-08-13T16:53:13.233Z,40.50
2018-08-13T16:55:41.683Z,41.50
2018-08-13T16:58:10.545Z,42.60
2018-08-13T17:00:38.869Z,43.00
2018-08-13T17:03:07.318Z,43.70
2018-08-13T17:05:35.765Z,44.30
2018-08-13T17:08:04.444Z,44.70
2018-08-13T17:10:32.858Z,45.20
2018-08-13T17:13:01.195Z,46.10
2018-08-13T17:15:31.055Z,46.70
2018-08-13T17:18:01.076Z,47.10
2018-08-13T17:20:34.715Z,47.80
2018-08-13T17:23:03.108Z,48.20
2018-08-13T17:25:31.432Z,48.00
2018-08-13T17:28:00.273Z,48.70
2018-08-13T17:30:28.667Z,49.00
2018-08-13T17:32:58.495Z,49.10
2018-08-13T17:35:28.882Z,49.70
2018-08-13T17:37:57.584Z,49.60
2018-08-13T17:40:26.247Z,49.60
2018-08-13T17:42:55.522Z,49.60
2018-08-13T17:45:24.225Z,50.00
2018-08-13T17:47:52.703Z,50.40
2018-08-13T17:50:21.917Z,50.30
2018-08-13T17:52:50.361Z,50.30
2018-08-13T17:55:19.074Z,51.10
2018-08-13T17:57:47.772Z,50.20
2018-08-13T18:00:19.815Z,50.80
2018-08-13T18:02:48.216Z,51.00
2018-08-13T18:05:19.838Z,50.40
2018-08-13T18:07:48.655Z,50.70
2018-08-13T18:10:28.617Z,50.30
2018-08-13T18:13:00.332Z,50.60
2018-08-13T18:15:29.722Z,50.90
2018-08-13T18:17:58.717Z,50.60
2018-08-13T18:20:27.630Z,50.60
2018-08-13T18:22:56.144Z,51.30
2018-08-13T18:25:24.597Z,50.30
2018-08-13T18:27:53.252Z,50.50
2018-08-13T18:30:23.788Z,50.50
2018-08-13T18:32:52.891Z,50.20
2018-08-13T18:35:21.248Z,51.00
2018-08-13T18:37:49.671Z,50.50
2018-08-13T18:40:21.419Z,51.00
2018-08-13T18:42:49.871Z,51.40
2018-08-13T18:45:18.282Z,49.70
2018-08-13T18:47:47.185Z,50.20
2018-08-13T18:50:16.954Z,49.80
2018-08-13T18:52:46.068Z,49.00
2018-08-13T18:55:17.075Z,48.10
2018-08-13T18:57:45.900Z,46.60
2018-08-13T19:00:32.788Z,46.10
2018-08-13T19:03:02.021Z,45.70
2018-08-13T19:05:30.555Z,45.60
2018-08-13T19:07:59.334Z,44.80
2018-08-13T19:10:27.728Z,44.50
2018-08-13T19:12:56.130Z,44.00
2018-08-13T19:15:26.719Z,44.10
2018-08-13T19:17:59.956Z,44.20
2018-08-13T19:20:34.409Z,44.10
2018-08-13T19:23:07.947Z,44.20
2018-08-13T19:25:41.785Z,44.40
2018-08-13T19:28:14.057Z,44.50
2018-08-13T19:30:45.364Z,45.00
2018-08-13T19:33:20.008Z,45.00
2018-08-13T19:35:54.618Z,45.10
2018-08-13T19:38:29.172Z,45.40
2018-08-13T19:41:07.073Z,45.60
2018-08-13T19:43:37.135Z,45.70
2018-08-13T19:46:11.551Z,45.90
2018-08-13T19:48:45.249Z,45.90
2018-08-13T19:51:14.872Z,46.00
2018-08-13T19:53:44.641Z,45.90
2018-08-13T19:56:13.582Z,45.90
2018-08-13T19:58:43.207Z,46.30
2018-08-13T20:01:11.770Z,46.20
2018-08-13T20:03:45.153Z,46.40
2018-08-13T20:06:13.689Z,46.70
2018-08-13T20:08:48.008Z,46.40
2018-08-13T20:11:30.405Z,46.60
2018-08-13T20:14:02.488Z,46.50
2018-08-13T20:16:32.685Z,46.50
2018-08-13T20:19:04.236Z,46.80
2018-08-13T20:21:36.500Z,46.90
2018-08-13T20:24:12.000Z,46.70
2018-08-13T20:26:45.233Z,46.80
2018-08-13T20:29:13.683Z,47.30
2018-08-13T20:31:42.578Z,46.50
2018-08-13T20:34:11.138Z,46.80
2018-08-13T20:36:40.344Z,46.70
2018-08-13T20:39:11.887Z,46.50
2018-08-13T20:41:40.600Z,46.60
2018-08-13T20:44:09.382Z,46.40
2018-08-13T20:46:38.000Z,46.40
2018-08-13T20:49:06.989Z,46.50
2018-08-13T20:51:35.695Z,46.70
2018-08-13T20:54:04.601Z,46.80
2018-08-13T20:56:33.206Z,47.40
2018-08-13T20:59:01.601Z,47.20
2018-08-13T21:01:30.025Z,47.40
2018-08-13T21:03:58.539Z,47.30
2018-08-13T21:06:27.146Z,47.40
2018-08-13T21:08:55.724Z,47.50
2018-08-13T21:11:24.341Z,47.50
2018-08-13T21:13:52.948Z,47.50
2018-08-13T21:16:21.356Z,47.70
2018-08-13T21:18:49.858Z,47.70
2018-08-13T21:21:18.315Z,47.40
2018-08-13T21:23:46.736Z,47.60
2018-08-13T21:26:15.112Z,47.60
2018-08-13T21:28:43.922Z,47.80
2018-08-13T21:31:12.347Z,48.00
2018-08-13T21:33:40.700Z,47.80
2018-08-13T21:36:09.342Z,47.60
2018-08-13T21:38:38.005Z,47.50
2018-08-13T21:41:06.696Z,47.80
2018-08-13T21:43:35.033Z,48.10
2018-08-13T21:46:03.773Z,47.90
2018-08-13T21:48:32.257Z,48.30
2018-08-13T21:51:00.864Z,48.20
2018-08-13T21:53:29.239Z,47.80
2018-08-13T21:55:57.580Z,47.90
2018-08-13T21:58:25.918Z,48.00
2018-08-13T22:00:59.839Z,48.20
2018-08-13T22:03:28.263Z,48.30
2018-08-13T22:05:56.560Z,48.60
2018-08-13T22:08:24.920Z,48.60
2018-08-13T22:10:53.229Z,48.60
2018-08-13T22:13:21.552Z,48.90
2018-08-13T22:15:49.903Z,48.80
2018-08-13T22:18:18.405Z,49.00
2018-08-13T22:20:46.844Z,48.80
2018-08-13T22:23:15.284Z,48.90
2018-08-13T22:25:44.983Z,49.20
2018-08-13T22:28:15.896Z,49.10
2018-08-13T22:30:45.150Z,48.30
2018-08-13T22:33:13.634Z,48.40
2018-08-13T22:35:42.897Z,48.50
2018-08-13T22:38:11.318Z,48.70
2018-08-13T22:40:40.352Z,48.40
2018-08-13T22:43:09.045Z,48.20
2018-08-13T22:45:37.275Z,48.30
2018-08-13T22:48:06.350Z,48.30
2018-08-13T22:50:34.687Z,48.30
2018-08-13T22:53:03.120Z,48.10
2018-08-13T22:55:31.440Z,48.30
2018-08-13T22:57:59.779Z,48.30
2018-08-13T23:00:28.105Z,48.30
2018-08-13T23:02:56.488Z,48.00
2018-08-13T23:05:26.170Z,48.60
2018-08-13T23:07:54.590Z,48.60
2018-08-13T23:10:24.321Z,48.80
2018-08-13T23:12:53.876Z,48.90
2018-08-13T23:15:22.410Z,49.40
2018-08-13T23:17:51.363Z,49.30
2018-08-13T23:20:21.262Z,49.40
2018-08-13T23:22:53.243Z,49.40
2018-08-13T23:25:21.737Z,49.70
2018-08-13T23:27:51.259Z,49.80
2018-08-13T23:30:19.770Z,49.70
2018-08-13T23:32:50.306Z,49.80
2018-08-13T23:35:19.477Z,49.90
2018-08-13T23:37:47.962Z,49.90
2018-08-13T23:40:16.288Z,50.10
2018-08-13T23:42:44.725Z,50.00
2018-08-13T23:45:15.334Z,49.80
2018-08-13T23:47:43.940Z,50.00
2018-08-13T23:50:16.948Z,50.00
2018-08-13T23:52:45.421Z,50.00
2018-08-13T23:55:20.144Z,50.10
2018-08-13T23:57:48.626Z,50.40
